createdAt,value
2023-04-09T00:01:08.513Z,7.40
2023-04-09T00:03:37.334Z,9.13
2023-04-09T00:06:06.277Z,6.73
2023-04-09T00:08:34.357Z,7.10
2023-04-09T00:11:03.820Z,7.47
2023-04-09T00:13:39.071Z,7.57
2023-04-09T00:16:07.913Z,7.43
2023-04-09T00:18:36.228Z,7.80
2023-04-09T00:21:04.404Z,10.10
2023-04-09T00:23:32.493Z,6.93
2023-04-09T00:26:03.982Z,7.70
2023-04-09T00:28:33.435Z,6.80
2023-04-09T00:31:01.763Z,7.23
2023-04-09T00:33:29.766Z,8.53
2023-04-09T00:35:57.844Z,7.70
2023-04-09T00:38:26.105Z,7.47
2023-04-09T00:40:54.073Z,7.97
2023-04-09T00:43:24.063Z,8.07
2023-04-09T00:45:53.518Z,8.30
2023-04-09T00:48:22.321Z,8.40
2023-04-09T00:50:50.903Z,8.50
2023-04-09T00:53:19.856Z,7.60
2023-04-09T00:55:49.867Z,8.47
2023-04-09T00:58:20.362Z,8.77
2023-04-09T01:00:48.451Z,7.47
2023-04-09T01:03:18.187Z,8.33
2023-04-09T01:05:55.577Z,8.20
2023-04-09T01:08:34.369Z,8.57
2023-04-09T01:11:11.273Z,6.53
2023-04-09T01:13:48.421Z,8.60
2023-04-09T01:16:18.073Z,10.10
2023-04-09T01:18:53.064Z,8.80
2023-04-09T01:21:24.596Z,9.20
2023-04-09T01:24:03.839Z,9.00
2023-04-09T01:26:45.204Z,8.73
2023-04-09T01:29:16.544Z,8.73
2023-04-09T01:31:46.373Z,8.47
2023-04-09T01:34:15.616Z,8.37
2023-04-09T01:36:46.187Z,10.50
2023-04-09T01:39:14.411Z,8.53
2023-04-09T01:41:43.528Z,12.27
2023-04-09T01:44:15.110Z,12.27
2023-04-09T01:46:43.528Z,10.27
2023-04-09T01:49:13.998Z,12.50
2023-04-09T01:51:42.339Z,11.67
2023-04-09T01:54:10.603Z,10.43
2023-04-09T01:56:42.719Z,9.63
2023-04-09T01:59:10.874Z,11.17
2023-04-09T02:01:46.213Z,11.17
2023-04-09T02:04:21.058Z,9.30
2023-04-09T02:06:58.511Z,12.87
2023-04-09T02:09:29.693Z,13.70
2023-04-09T02:11:59.693Z,12.10
2023-04-09T02:14:32.803Z,11.97
2023-04-09T02:17:02.938Z,12.17
2023-04-09T02:19:40.754Z,12.03
2023-04-09T02:22:09.002Z,12.87
2023-04-09T02:24:37.844Z,12.00
2023-04-09T02:27:06.355Z,12.13
2023-04-09T02:29:34.617Z,12.10
2023-04-09T02:32:04.242Z,14.40
2023-04-09T02:34:32.407Z,12.47
2023-04-09T02:37:00.723Z,12.90
2023-04-09T02:39:28.732Z,12.00
2023-04-09T02:41:58.936Z,12.03
2023-04-09T02:44:27.130Z,12.87
2023-04-09T02:46:55.234Z,13.10
2023-04-09T02:49:24.600Z,11.80
2023-04-09T02:51:52.785Z,14.97
2023-04-09T02:54:20.810Z,11.33
2023-04-09T02:56:48.888Z,12.60
2023-04-09T02:59:16.973Z,14.73
2023-04-09T03:01:45.157Z,13.97
2023-04-09T03:04:13.346Z,12.23
2023-04-09T03:06:42.872Z,12.70
2023-04-09T03:09:10.947Z,12.70
2023-04-09T03:11:38.963Z,12.53
2023-04-09T03:14:07.064Z,13.87
2023-04-09T03:16:35.082Z,13.27
2023-04-09T03:19:03.204Z,13.17
2023-04-09T03:21:32.138Z,11.77
2023-04-09T03:24:03.912Z,12.33
2023-04-09T03:26:36.282Z,13.00
2023-04-09T03:29:04.634Z,12.60
2023-04-09T03:31:33.093Z,14.60
2023-04-09T03:34:01.358Z,13.13
2023-04-09T03:36:29.525Z,11.50
2023-04-09T03:38:57.707Z,13.67
2023-04-09T03:41:27.700Z,14.20
2023-04-09T03:43:59.818Z,12.83
2023-04-09T03:46:27.961Z,13.23
2023-04-09T03:48:56.058Z,12.20
2023-04-09T03:51:25.629Z,13.73
2023-04-09T03:53:53.643Z,13.93
2023-04-09T03:56:22.312Z,13.77
2023-04-09T03:58:51.972Z,12.20
2023-04-09T04:01:20.662Z,13.63
2023-04-09T04:03:48.881Z,15.73
2023-04-09T04:06:16.969Z,12.77
2023-04-09T04:08:45.534Z,13.37
2023-04-09T04:11:13.518Z,12.97
2023-04-09T04:13:41.583Z,13.77
2023-04-09T04:16:11.670Z,14.93
2023-04-09T04:18:39.947Z,12.60
2023-04-09T04:21:14.230Z,12.90
2023-04-09T04:23:42.566Z,13.97
2023-04-09T04:26:11.354Z,14.67
2023-04-09T04:28:41.584Z,14.87
2023-04-09T04:31:11.649Z,15.03
2023-04-09T04:33:41.656Z,15.33
2023-04-09T04:36:12.221Z,13.70
2023-04-09T04:38:41.265Z,13.97
2023-04-09T04:41:09.621Z,15.63
2023-04-09T04:43:37.772Z,14.57
2023-04-09T04:46:09.994Z,19.70
2023-04-09T04:48:42.412Z,17.47
2023-04-09T04:51:10.323Z,17.00
2023-04-09T04:53:38.376Z,16.93
2023-04-09T04:56:06.947Z,18.73
2023-04-09T04:58:35.167Z,16.93
2023-04-09T05:01:03.416Z,20.23
2023-04-09T05:03:33.124Z,16.03
2023-04-09T05:06:01.310Z,17.00
2023-04-09T05:08:29.220Z,16.53
2023-04-09T05:10:59.968Z,18.67
2023-04-09T05:13:28.143Z,19.90
2023-04-09T05:15:56.410Z,20.47
2023-04-09T05:18:24.589Z,21.83
2023-04-09T05:20:54.267Z,20.30
2023-04-09T05:23:22.283Z,19.97
2023-04-09T05:25:50.753Z,23.07
2023-04-09T05:28:18.947Z,19.30
2023-04-09T05:30:54.710Z,21.10
2023-04-09T05:33:23.024Z,19.70
2023-04-09T05:35:51.411Z,21.07
2023-04-09T05:38:21.179Z,20.97
2023-04-09T05:40:49.258Z,21.73
2023-04-09T05:43:17.379Z,23.37
2023-04-09T05:45:45.668Z,23.53
2023-04-09T05:48:13.717Z,26.13
2023-04-09T05:50:53.735Z,26.97
2023-04-09T05:53:24.476Z,31.77
2023-04-09T05:55:52.776Z,28.77
2023-04-09T05:58:21.562Z,24.13
2023-04-09T06:00:51.595Z,21.57
2023-04-09T06:03:19.986Z,22.70
2023-04-09T06:05:48.730Z,21.87
2023-04-09T06:08:16.831Z,25.67
2023-04-09T06:10:46.417Z,21.93
2023-04-09T06:13:14.759Z,25.33
2023-04-09T06:15:42.955Z,26.07
2023-04-09T06:18:11.138Z,23.67
2023-04-09T06:20:39.173Z,24.20
2023-04-09T06:23:07.208Z,24.67
2023-04-09T06:25:36.423Z,27.00
2023-04-09T06:28:12.442Z,25.87
2023-04-09T06:30:40.437Z,25.53
2023-04-09T06:33:08.846Z,24.43
2023-04-09T06:35:37.415Z,23.83
2023-04-09T06:38:06.797Z,24.80
2023-04-09T06:40:35.183Z,21.07
2023-04-09T06:43:03.647Z,22.43
2023-04-09T06:45:33.704Z,24.60
2023-04-09T06:48:02.198Z,23.00
2023-04-09T06:50:31.460Z,24.10
2023-04-09T06:53:01.959Z,22.17
2023-04-09T06:55:30.400Z,23.27
2023-04-09T06:57:59.178Z,23.00
2023-04-09T07:00:27.268Z,21.37
2023-04-09T07:02:57.218Z,21.00
2023-04-09T07:05:25.457Z,22.30
2023-04-09T07:07:53.571Z,23.03
2023-04-09T07:10:21.796Z,22.50
2023-04-09T07:12:49.986Z,20.60
2023-04-09T07:15:18.153Z,20.10
2023-04-09T07:17:46.230Z,22.87
2023-04-09T07:20:24.861Z,21.37
2023-04-09T07:22:52.835Z,22.00
2023-04-09T07:25:21.413Z,22.03
2023-04-09T07:27:49.707Z,21.47
2023-04-09T07:30:17.700Z,21.53
2023-04-09T07:32:45.709Z,22.87
2023-04-09T07:35:13.659Z,22.80
2023-04-09T07:37:42.964Z,19.67
2023-04-09T07:40:11.512Z,22.37
2023-04-09T07:42:39.894Z,19.83
2023-04-09T07:45:08.964Z,20.17
2023-04-09T07:47:37.015Z,20.03
2023-04-09T07:50:05.466Z,20.97
2023-04-09T07:52:33.606Z,20.57
2023-04-09T07:55:03.016Z,20.53
2023-04-09T07:57:33.102Z,22.67
2023-04-09T08:00:01.558Z,19.70
2023-04-09T08:02:30.262Z,20.60
2023-04-09T08:04:59.388Z,22.20
2023-04-09T08:07:27.428Z,24.10
2023-04-09T08:09:55.540Z,20.97
2023-04-09T08:12:24.825Z,21.40
2023-04-09T08:14:52.795Z,22.63
2023-04-09T08:17:20.747Z,20.97
2023-04-09T08:19:49.552Z,21.20
2023-04-09T08:22:17.516Z,22.70
2023-04-09T08:24:45.580Z,21.67
2023-04-09T08:27:13.676Z,20.73
2023-04-09T08:29:43.021Z,21.97
2023-04-09T08:32:11.742Z,21.10
2023-04-09T08:34:39.765Z,21.07
2023-04-09T08:37:08.066Z,21.67
2023-04-09T08:39:36.368Z,23.10
2023-04-09T08:42:08.808Z,20.43
2023-04-09T08:44:37.109Z,22.47
2023-04-09T08:47:11.456Z,19.93
2023-04-09T08:49:41.222Z,21.63
2023-04-09T08:52:09.333Z,21.53
2023-04-09T08:54:37.355Z,21.43
2023-04-09T08:57:06.664Z,20.63
2023-04-09T08:59:37.052Z,21.33
2023-04-09T09:02:10.946Z,20.13
2023-04-09T09:05:00.737Z,23.57
2023-04-09T09:07:29.738Z,19.33
2023-04-09T09:09:59.487Z,18.27
2023-04-09T09:12:39.197Z,20.53
2023-04-09T09:15:28.560Z,19.50
2023-04-09T09:17:59.733Z,18.07
2023-04-09T09:20:29.270Z,20.23
2023-04-09T09:22:57.690Z,19.70
2023-04-09T09:25:26.768Z,18.20
2023-04-09T09:27:55.262Z,17.67
2023-04-09T09:30:24.110Z,15.10
2023-04-09T09:32:54.341Z,16.50
2023-04-09T09:35:27.127Z,18.40
2023-04-09T09:38:05.354Z,18.53
2023-04-09T09:40:33.522Z,17.80
2023-04-09T09:43:01.487Z,17.67
2023-04-09T09:45:31.426Z,16.70
2023-04-09T09:47:59.413Z,18.00
2023-04-09T09:50:32.669Z,16.97
2023-04-09T09:53:05.060Z,16.43
2023-04-09T09:55:33.907Z,15.23
2023-04-09T09:58:04.898Z,14.13
2023-04-09T10:00:34.031Z,14.50
2023-04-09T10:03:09.756Z,16.00
2023-04-09T10:05:41.584Z,17.03
2023-04-09T10:08:10.408Z,15.70
2023-04-09T10:10:42.023Z,16.20
2023-04-09T10:13:15.536Z,16.73
2023-04-09T10:15:45.127Z,16.87
2023-04-09T10:18:13.272Z,14.23
2023-04-09T10:20:51.145Z,13.73
2023-04-09T10:23:28.078Z,14.53
2023-04-09T10:25:56.374Z,13.73
2023-04-09T10:28:24.521Z,14.60
2023-04-09T10:30:54.933Z,13.15
2023-04-09T10:33:26.659Z,14.03
2023-04-09T10:36:00.628Z,13.37
2023-04-09T10:38:36.485Z,12.57
2023-04-09T10:41:16.050Z,12.90
2023-04-09T10:43:44.396Z,12.87
2023-04-09T10:46:28.581Z,10.63
2023-04-09T10:49:13.563Z,10.80
2023-04-09T10:51:45.155Z,10.97
2023-04-09T10:54:38.805Z,10.67
2023-04-09T10:57:19.051Z,11.13
2023-04-09T10:59:48.902Z,12.80
2023-04-09T11:02:46.485Z,11.67
2023-04-09T11:05:22.770Z,11.70
2023-04-09T11:07:57.937Z,11.80
2023-04-09T11:10:26.708Z,9.77
2023-04-09T11:12:54.837Z,10.85
2023-04-09T11:15:23.066Z,9.10
2023-04-09T11:17:51.243Z,9.23
2023-04-09T11:20:22.554Z,9.23
2023-04-09T11:22:52.645Z,10.43
2023-04-09T11:25:22.069Z,8.87
2023-04-09T11:27:50.760Z,9.00
2023-04-09T11:30:18.763Z,8.53
2023-04-09T11:32:47.462Z,8.80
2023-04-09T11:35:16.407Z,9.20
2023-04-09T11:37:45.705Z,9.27
2023-04-09T11:40:19.588Z,8.60
2023-04-09T11:42:49.322Z,9.33
2023-04-09T11:45:18.193Z,8.93
2023-04-09T11:47:47.423Z,8.90
2023-04-09T11:50:16.816Z,9.77
2023-04-09T11:52:46.509Z,8.47
2023-04-09T11:55:26.015Z,9.90
2023-04-09T11:57:55.349Z,9.30
2023-04-09T12:00:24.797Z,9.70
2023-04-09T12:02:59.935Z,9.70
2023-04-09T12:05:30.632Z,7.33
2023-04-09T12:08:00.923Z,8.13
2023-04-09T12:10:31.690Z,8.13
2023-04-09T12:13:03.521Z,9.57
2023-04-09T12:15:34.371Z,9.20
2023-04-09T12:18:03.382Z,8.03
2023-04-09T12:20:34.440Z,8.33
2023-04-09T12:23:04.869Z,7.60
2023-04-09T12:25:36.582Z,7.20
2023-04-09T12:28:05.675Z,7.17
2023-04-09T12:30:34.067Z,7.47
2023-04-09T12:33:02.580Z,6.67
2023-04-09T12:35:30.837Z,6.30
2023-04-09T12:37:59.293Z,7.10
2023-04-09T12:40:27.798Z,6.47
2023-04-09T12:42:57.189Z,6.40
2023-04-09T12:45:25.222Z,7.53
2023-04-09T12:47:53.303Z,7.30
2023-04-09T12:50:21.335Z,7.93
2023-04-09T12:52:49.501Z,7.50
2023-04-09T12:55:19.894Z,7.03
2023-04-09T12:57:51.315Z,6.67
2023-04-09T13:00:20.678Z,6.10
2023-04-09T13:02:48.954Z,6.20
2023-04-09T13:05:17.102Z,6.47
2023-04-09T13:07:45.772Z,6.23
2023-04-09T13:10:19.501Z,6.63
2023-04-09T13:12:51.502Z,6.40
2023-04-09T13:15:25.608Z,6.00
2023-04-09T13:17:53.897Z,5.87
2023-04-09T13:20:21.929Z,5.70
2023-04-09T13:22:50.998Z,5.90
2023-04-09T13:25:19.106Z,5.63
2023-04-09T13:27:47.064Z,5.87
2023-04-09T13:30:14.997Z,7.30
2023-04-09T13:32:44.993Z,5.43
2023-04-09T13:35:13.084Z,5.97
2023-04-09T13:37:41.091Z,6.23
2023-04-09T13:40:10.416Z,5.63
2023-04-09T13:42:38.524Z,5.93
2023-04-09T13:45:07.656Z,6.07
2023-04-09T13:47:35.754Z,5.93
2023-04-09T13:50:05.755Z,7.50
2023-04-09T13:52:34.043Z,10.87
2023-04-09T13:55:05.024Z,7.50
2023-04-09T13:57:32.930Z,5.90
2023-04-09T14:00:01.910Z,6.23
2023-04-09T14:02:30.372Z,6.00
2023-04-09T14:04:58.680Z,6.13
2023-04-09T14:07:27.980Z,5.57
2023-04-09T14:09:55.962Z,6.00
2023-04-09T14:12:24.211Z,6.23
2023-04-09T14:14:52.808Z,6.10
2023-04-09T14:17:21.033Z,6.43
2023-04-09T14:19:48.899Z,6.47
2023-04-09T14:22:17.173Z,6.73
2023-04-09T14:24:47.892Z,6.07
2023-04-09T14:27:15.878Z,5.67
2023-04-09T14:29:43.961Z,5.90
2023-04-09T14:32:11.941Z,6.10
2023-04-09T14:34:39.833Z,6.77
2023-04-09T14:37:09.032Z,5.50
2023-04-09T14:39:37.094Z,6.07
2023-04-09T14:42:06.539Z,5.77
2023-04-09T14:44:34.841Z,5.27
2023-04-09T14:47:03.605Z,5.97
2023-04-09T14:49:31.673Z,5.73
2023-04-09T14:52:00.184Z,5.80
2023-04-09T14:54:30.352Z,5.93
2023-04-09T14:56:58.973Z,6.40
2023-04-09T14:59:28.326Z,5.73
2023-04-09T15:01:56.396Z,5.90
2023-04-09T15:04:24.583Z,5.50
2023-04-09T15:06:52.779Z,5.33
2023-04-09T15:09:21.009Z,5.43
2023-04-09T15:11:48.997Z,5.97
2023-04-09T15:14:17.107Z,5.77
2023-04-09T15:16:46.701Z,5.00
2023-04-09T15:19:14.678Z,5.13
2023-04-09T15:21:42.919Z,5.37
2023-04-09T15:24:10.906Z,5.10
2023-04-09T15:26:39.345Z,5.53
2023-04-09T15:29:08.565Z,5.63
2023-04-09T15:31:37.620Z,6.47
2023-04-09T15:34:08.296Z,5.80
2023-04-09T15:36:36.219Z,4.77
2023-04-09T15:39:04.751Z,5.57
2023-04-09T15:41:33.800Z,5.90
2023-04-09T15:44:01.735Z,5.23
2023-04-09T15:46:29.928Z,5.20
2023-04-09T15:48:57.882Z,5.30
2023-04-09T15:51:27.717Z,5.63
2023-04-09T15:53:55.699Z,5.33
2023-04-09T15:56:23.805Z,4.90
2023-04-09T15:58:52.122Z,5.80
2023-04-09T16:01:20.358Z,5.90
2023-04-09T16:03:52.014Z,7.17
2023-04-09T16:06:21.303Z,10.10
2023-04-09T16:08:51.296Z,4.93
2023-04-09T16:11:19.562Z,4.60
2023-04-09T16:13:47.716Z,4.97
2023-04-09T16:16:15.739Z,4.70
2023-04-09T16:18:43.786Z,6.53
2023-04-09T16:21:12.493Z,5.07
2023-04-09T16:23:41.612Z,5.70
2023-04-09T16:26:11.554Z,4.90
2023-04-09T16:28:39.588Z,5.07
2023-04-09T16:31:07.870Z,5.17
2023-04-09T16:33:35.790Z,5.03
2023-04-09T16:36:04.435Z,5.23
2023-04-09T16:38:32.467Z,6.17
2023-04-09T16:41:00.577Z,5.53
2023-04-09T16:43:31.480Z,4.60
2023-04-09T16:45:59.494Z,5.77
2023-04-09T16:48:27.433Z,5.07
2023-04-09T16:50:55.494Z,4.17
2023-04-09T16:53:25.580Z,4.70
2023-04-09T16:55:53.765Z,3.77
2023-04-09T16:58:22.050Z,5.30
2023-04-09T17:00:52.318Z,5.90
2023-04-09T17:03:37.502Z,4.87
2023-04-09T17:06:06.952Z,4.40
2023-04-09T17:08:36.783Z,4.97
2023-04-09T17:11:07.126Z,3.70
2023-04-09T17:13:37.235Z,4.80
2023-04-09T17:16:11.508Z,4.67
2023-04-09T17:18:46.094Z,4.33
2023-04-09T17:21:14.048Z,4.07
2023-04-09T17:23:44.849Z,4.50
2023-04-09T17:26:16.862Z,4.40
2023-04-09T17:28:46.601Z,6.03
2023-04-09T17:31:17.778Z,4.70
2023-04-09T17:33:48.017Z,5.83
2023-04-09T17:36:18.053Z,4.70
2023-04-09T17:38:52.800Z,4.60
2023-04-09T17:41:24.081Z,8.33
2023-04-09T17:43:52.168Z,5.10
2023-04-09T17:46:21.643Z,5.23
2023-04-09T17:48:53.562Z,4.83
2023-04-09T17:51:21.870Z,4.07
2023-04-09T17:53:49.935Z,8.80
2023-04-09T17:56:18.248Z,7.73
2023-04-09T17:58:46.446Z,8.43
2023-04-09T18:01:15.776Z,4.70
2023-04-09T18:03:46.180Z,5.30
2023-04-09T18:06:15.364Z,5.53
2023-04-09T18:08:43.397Z,4.87
2023-04-09T18:11:13.108Z,5.10
2023-04-09T18:13:42.074Z,5.30
2023-04-09T18:16:11.019Z,6.10
2023-04-09T18:18:41.123Z,6.83
2023-04-09T18:21:10.520Z,5.33
2023-04-09T18:23:41.411Z,6.47
2023-04-09T18:26:09.356Z,5.17
2023-04-09T18:28:40.883Z,4.93
2023-04-09T18:31:08.910Z,6.60
2023-04-09T18:33:37.213Z,5.97
2023-04-09T18:36:05.618Z,5.10
2023-04-09T18:38:55.265Z,5.37
2023-04-09T18:41:27.016Z,6.60
2023-04-09T18:43:55.670Z,5.67
2023-04-09T18:46:25.496Z,8.50
2023-04-09T18:48:56.317Z,6.50
2023-04-09T18:51:26.347Z,8.27
2023-04-09T18:54:03.183Z,8.13
2023-04-09T18:56:34.112Z,6.73
2023-04-09T18:59:05.765Z,7.97
2023-04-09T19:01:34.190Z,6.47
2023-04-09T19:04:05.453Z,6.83
2023-04-09T19:06:42.610Z,6.97
2023-04-09T19:09:12.443Z,7.90
2023-04-09T19:11:40.452Z,6.97
2023-04-09T19:14:10.627Z,7.07
2023-04-09T19:16:38.762Z,6.77
2023-04-09T19:19:24.592Z,8.47
2023-04-09T19:21:52.810Z,10.30
2023-04-09T19:24:29.090Z,9.23
2023-04-09T19:26:57.415Z,6.13
2023-04-09T19:29:25.546Z,9.43
2023-04-09T19:31:54.065Z,9.67
2023-04-09T19:34:22.361Z,8.40
2023-04-09T19:36:50.469Z,8.50
2023-04-09T19:39:18.861Z,7.20
2023-04-09T19:41:48.189Z,10.33
2023-04-09T19:44:23.758Z,8.60
2023-04-09T19:46:52.224Z,7.77
2023-04-09T19:49:21.005Z,8.63
2023-04-09T19:51:50.146Z,11.77
2023-04-09T19:54:18.177Z,9.17
2023-04-09T19:56:47.564Z,26.13
2023-04-09T19:59:15.748Z,35.13
2023-04-09T20:01:44.017Z,11.83
2023-04-09T20:04:14.777Z,9.87
2023-04-09T20:06:44.271Z,10.07
2023-04-09T20:09:13.504Z,9.40
2023-04-09T20:11:42.148Z,8.50
2023-04-09T20:14:12.072Z,9.20
2023-04-09T20:16:40.054Z,8.53
2023-04-09T20:19:08.052Z,8.27
2023-04-09T20:21:36.082Z,8.50
2023-04-09T20:24:04.757Z,6.87
2023-04-09T20:26:32.715Z,8.97
2023-04-09T20:29:01.753Z,8.37
2023-04-09T20:31:34.979Z,9.20
2023-04-09T20:34:08.076Z,8.53
2023-04-09T20:36:37.627Z,8.60
2023-04-09T20:39:05.781Z,12.60
2023-04-09T20:41:33.761Z,9.73
2023-04-09T20:44:02.098Z,8.57
2023-04-09T20:46:31.751Z,7.50
2023-04-09T20:49:00.706Z,7.83
2023-04-09T20:51:28.716Z,7.53
2023-04-09T20:53:56.911Z,7.93
2023-04-09T20:56:24.828Z,8.33
2023-04-09T20:58:52.993Z,8.60
2023-04-09T21:01:24.554Z,7.97
2023-04-09T21:03:54.874Z,9.83
2023-04-09T21:06:22.880Z,8.70
2023-04-09T21:08:50.942Z,8.00
2023-04-09T21:11:19.055Z,7.37
2023-04-09T21:13:54.562Z,9.33
2023-04-09T21:16:23.413Z,8.30
2023-04-09T21:18:53.112Z,8.73
2023-04-09T21:21:26.025Z,7.60
2023-04-09T21:23:54.100Z,8.77
2023-04-09T21:26:22.146Z,7.27
2023-04-09T21:28:53.284Z,7.67
2023-04-09T21:31:23.734Z,9.10
2023-04-09T21:33:53.137Z,8.10
2023-04-09T21:36:21.873Z,8.10
2023-04-09T21:38:49.993Z,6.97
2023-04-09T21:41:18.165Z,7.63
2023-04-09T21:43:46.107Z,8.40
2023-04-09T21:46:14.199Z,10.97
2023-04-09T21:48:42.528Z,8.43
2023-04-09T21:51:12.425Z,9.27
2023-04-09T21:53:40.444Z,8.03
2023-04-09T21:56:09.020Z,8.17
2023-04-09T21:58:36.969Z,9.23
2023-04-09T22:01:06.119Z,8.80
2023-04-09T22:03:35.667Z,7.87
2023-04-09T22:06:03.740Z,8.70
2023-04-09T22:08:34.068Z,8.27
2023-04-09T22:11:04.082Z,9.07
2023-04-09T22:13:32.010Z,8.93
2023-04-09T22:16:00.074Z,9.37
2023-04-09T22:18:28.099Z,9.23
2023-04-09T22:20:56.213Z,8.77
2023-04-09T22:23:24.233Z,8.20
2023-04-09T22:26:00.149Z,9.43
2023-04-09T22:28:29.232Z,12.47
2023-04-09T22:30:58.317Z,9.70
2023-04-09T22:33:27.291Z,8.73
2023-04-09T22:35:55.352Z,8.83
2023-04-09T22:38:23.459Z,9.10
2023-04-09T22:40:52.852Z,12.07
2023-04-09T22:43:20.807Z,9.73
2023-04-09T22:45:52.975Z,9.60
2023-04-09T22:48:21.881Z,9.43
2023-04-09T22:50:51.027Z,8.23
2023-04-09T22:53:19.615Z,9.23
2023-04-09T22:55:50.601Z,8.40
2023-04-09T22:58:19.920Z,9.27
2023-04-09T23:00:48.296Z,9.50
2023-04-09T23:03:16.915Z,8.27
2023-04-09T23:05:45.263Z,8.47
2023-04-09T23:08:13.156Z,9.03
2023-04-09T23:10:41.293Z,8.53
2023-04-09T23:13:10.230Z,9.20
2023-04-09T23:15:39.654Z,9.30
2023-04-09T23:18:07.780Z,9.47
2023-04-09T23:20:36.883Z,9.27
2023-04-09T23:23:05.108Z,13.97
2023-04-09T23:25:33.035Z,18.90
2023-04-09T23:28:01.038Z,15.70
2023-04-09T23:30:28.992Z,10.43
2023-04-09T23:32:58.473Z,9.03
2023-04-09T23:35:26.593Z,9.97
2023-04-09T23:37:54.596Z,9.90
2023-04-09T23:40:22.638Z,13.03
2023-04-09T23:42:51.017Z,11.63
2023-04-09T23:45:23.538Z,10.13
2023-04-09T23:47:52.868Z,10.00
2023-04-09T23:50:23.225Z,8.93
2023-04-09T23:52:51.491Z,9.10
2023-04-09T23:55:19.834Z,8.83
2023-04-09T23:57:47.730Z,9.37
